sensor_id;sensor_type;location;lat;lon;timestamp;P1;durP1;ratioP1;P2;durP2;ratioP2
41253;SDS011;26987;59.928;30.306;2022-09-20T00:01:08;0.60;;;0.30;;
41253;SDS011;26987;59.928;30.306;2022-09-20T00:03:38;0.80;;;0.47;;
41253;SDS011;26987;59.928;30.306;2022-09-20T00:06:08;1.17;;;0.75;;
41253;SDS011;26987;59.928;30.306;2022-09-20T00:08:38;1.48;;;0.45;;
41253;SDS011;26987;59.928;30.306;2022-09-20T00:11:07;1.50;;;0.50;;
41253;SDS011;26987;59.928;30.306;2022-09-20T00:13:37;0.93;;;0.30;;
41253;SDS011;26987;59.928;30.306;2022-09-20T00:16:09;0.63;;;0.38;;
41253;SDS011;26987;59.928;30.306;2022-09-20T00:18:38;0.73;;;0.45;;
41253;SDS011;26987;59.928;30.306;2022-09-20T00:21:10;0.30;;;0.30;;
41253;SDS011;26987;59.928;30.306;2022-09-20T00:23:42;2.28;;;0.50;;
41253;SDS011;26987;59.928;30.306;2022-09-20T00:26:10;0.80;;;0.32;;
41253;SDS011;26987;59.928;30.306;2022-09-20T00:28:39;1.35;;;0.50;;
41253;SDS011;26987;59.928;30.306;2022-09-20T00:31:08;1.55;;;0.50;;
41253;SDS011;26987;59.928;30.306;2022-09-20T00:33:38;1.90;;;0.43;;
41253;SDS011;26987;59.928;30.306;2022-09-20T00:38:54;0.82;;;0.40;;
41253;SDS011;26987;59.928;30.306;2022-09-20T00:41:22;1.15;;;0.50;;
41253;SDS011;26987;59.928;30.306;2022-09-20T00:43:51;0.85;;;0.47;;
41253;SDS011;26987;59.928;30.306;2022-09-20T00:46:23;2.55;;;0.65;;
41253;SDS011;26987;59.928;30.306;2022-09-20T00:48:55;1.70;;;0.40;;
41253;SDS011;26987;59.928;30.306;2022-09-20T00:53:58;2.40;;;0.50;;
41253;SDS011;26987;59.928;30.306;2022-09-20T00:56:31;0.80;;;0.40;;
41253;SDS011;26987;59.928;30.306;2022-09-20T00:59:10;0.73;;;0.50;;
41253;SDS011;26987;59.928;30.306;2022-09-20T01:01:45;1.77;;;0.50;;
41253;SDS011;26987;59.928;30.306;2022-09-20T01:04:18;0.98;;;0.40;;
41253;SDS011;26987;59.928;30.306;2022-09-20T01:06:50;3.47;;;0.60;;
41253;SDS011;26987;59.928;30.306;2022-09-20T01:09:20;0.93;;;0.40;;
41253;SDS011;26987;59.928;30.306;2022-09-20T01:11:48;1.25;;;0.30;;
41253;SDS011;26987;59.928;30.306;2022-09-20T01:14:18;1.05;;;0.38;;
41253;SDS011;26987;59.928;30.306;2022-09-20T01:16:49;1.85;;;0.70;;
41253;SDS011;26987;59.928;30.306;2022-09-20T01:19:25;2.38;;;0.38;;
41253;SDS011;26987;59.928;30.306;2022-09-20T01:22:00;1.33;;;0.50;;
41253;SDS011;26987;59.928;30.306;2022-09-20T01:24:37;0.77;;;0.30;;
41253;SDS011;26987;59.928;30.306;2022-09-20T01:27:13;2.15;;;0.57;;
41253;SDS011;26987;59.928;30.306;2022-09-20T01:32:44;1.55;;;0.43;;
41253;SDS011;26987;59.928;30.306;2022-09-20T01:35:24;0.82;;;0.38;;
41253;SDS011;26987;59.928;30.306;2022-09-20T01:37:59;1.60;;;0.38;;
41253;SDS011;26987;59.928;30.306;2022-09-20T01:40:42;0.65;;;0.30;;
41253;SDS011;26987;59.928;30.306;2022-09-20T01:43:23;0.80;;;0.45;;
41253;SDS011;26987;59.928;30.306;2022-09-20T01:45:58;3.33;;;0.40;;
41253;SDS011;26987;59.928;30.306;2022-09-20T01:48:32;0.27;;;0.23;;
41253;SDS011;26987;59.928;30.306;2022-09-20T01:51:17;0.95;;;0.60;;
41253;SDS011;26987;59.928;30.306;2022-09-20T01:54:03;1.48;;;0.63;;
41253;SDS011;26987;59.928;30.306;2022-09-20T01:57:10;0.88;;;0.52;;
41253;SDS011;26987;59.928;30.306;2022-09-20T02:00:03;3.13;;;0.30;;
41253;SDS011;26987;59.928;30.306;2022-09-20T02:02:43;0.70;;;0.50;;
41253;SDS011;26987;59.928;30.306;2022-09-20T02:05:47;0.63;;;0.47;;
41253;SDS011;26987;59.928;30.306;2022-09-20T02:08:41;0.52;;;0.38;;
41253;SDS011;26987;59.928;30.306;2022-09-20T02:11:32;2.50;;;0.75;;
41253;SDS011;26987;59.928;30.306;2022-09-20T02:17:12;0.70;;;0.40;;
41253;SDS011;26987;59.928;30.306;2022-09-20T02:19:55;4.00;;;0.50;;
41253;SDS011;26987;59.928;30.306;2022-09-20T02:22:41;2.35;;;0.40;;
41253;SDS011;26987;59.928;30.306;2022-09-20T02:25:19;1.00;;;0.38;;
41253;SDS011;26987;59.928;30.306;2022-09-20T02:28:05;0.85;;;0.40;;
41253;SDS011;26987;59.928;30.306;2022-09-20T02:30:51;2.85;;;0.47;;
41253;SDS011;26987;59.928;30.306;2022-09-20T02:33:31;3.70;;;0.50;;
41253;SDS011;26987;59.928;30.306;2022-09-20T02:36:20;2.35;;;0.50;;
41253;SDS011;26987;59.928;30.306;2022-09-20T02:38:58;0.63;;;0.40;;
41253;SDS011;26987;59.928;30.306;2022-09-20T02:41:50;0.60;;;0.50;;
41253;SDS011;26987;59.928;30.306;2022-09-20T02:44:32;0.82;;;0.40;;
41253;SDS011;26987;59.928;30.306;2022-09-20T02:47:12;1.48;;;0.40;;
41253;SDS011;26987;59.928;30.306;2022-09-20T02:50:02;2.97;;;0.57;;
41253;SDS011;26987;59.928;30.306;2022-09-20T02:52:50;2.65;;;0.60;;
41253;SDS011;26987;59.928;30.306;2022-09-20T02:55:31;1.45;;;0.70;;
41253;SDS011;26987;59.928;30.306;2022-09-20T02:58:11;1.23;;;0.63;;
41253;SDS011;26987;59.928;30.306;2022-09-20T03:00:52;1.00;;;0.60;;
41253;SDS011;26987;59.928;30.306;2022-09-20T03:03:29;1.95;;;0.68;;
41253;SDS011;26987;59.928;30.306;2022-09-20T03:06:06;1.35;;;0.60;;
41253;SDS011;26987;59.928;30.306;2022-09-20T03:08:43;0.95;;;0.60;;
41253;SDS011;26987;59.928;30.306;2022-09-20T03:11:21;0.75;;;0.50;;
41253;SDS011;26987;59.928;30.306;2022-09-20T03:14:01;1.30;;;0.68;;
41253;SDS011;26987;59.928;30.306;2022-09-20T03:16:42;0.98;;;0.47;;
41253;SDS011;26987;59.928;30.306;2022-09-20T03:19:20;1.98;;;0.65;;
41253;SDS011;26987;59.928;30.306;2022-09-20T03:21:59;4.60;;;0.63;;
41253;SDS011;26987;59.928;30.306;2022-09-20T03:27:10;1.13;;;0.60;;
41253;SDS011;26987;59.928;30.306;2022-09-20T03:29:50;4.57;;;0.80;;
41253;SDS011;26987;59.928;30.306;2022-09-20T03:32:35;1.10;;;0.57;;
41253;SDS011;26987;59.928;30.306;2022-09-20T03:35:19;3.22;;;0.70;;
41253;SDS011;26987;59.928;30.306;2022-09-20T03:37:58;0.70;;;0.50;;
41253;SDS011;26987;59.928;30.306;2022-09-20T03:43:57;1.50;;;0.70;;
41253;SDS011;26987;59.928;30.306;2022-09-20T03:46:36;1.25;;;0.50;;
41253;SDS011;26987;59.928;30.306;2022-09-20T03:52:52;7.73;;;1.07;;
41253;SDS011;26987;59.928;30.306;2022-09-20T03:58:33;1.23;;;0.77;;
41253;SDS011;26987;59.928;30.306;2022-09-20T04:01:24;1.10;;;0.63;;
41253;SDS011;26987;59.928;30.306;2022-09-20T04:04:04;1.48;;;0.90;;
41253;SDS011;26987;59.928;30.306;2022-09-20T04:06:52;1.40;;;0.60;;
41253;SDS011;26987;59.928;30.306;2022-09-20T04:09:39;2.05;;;0.70;;
41253;SDS011;26987;59.928;30.306;2022-09-20T04:12:20;1.30;;;0.80;;
41253;SDS011;26987;59.928;30.306;2022-09-20T04:14:56;1.38;;;0.77;;
41253;SDS011;26987;59.928;30.306;2022-09-20T04:17:44;2.95;;;0.88;;
41253;SDS011;26987;59.928;30.306;2022-09-20T04:20:19;1.85;;;0.70;;
41253;SDS011;26987;59.928;30.306;2022-09-20T04:22:53;1.27;;;0.82;;
41253;SDS011;26987;59.928;30.306;2022-09-20T04:25:26;0.57;;;0.55;;
41253;SDS011;26987;59.928;30.306;2022-09-20T04:27:59;10.95;;;1.02;;
41253;SDS011;26987;59.928;30.306;2022-09-20T04:30:34;2.90;;;0.70;;
41253;SDS011;26987;59.928;30.306;2022-09-20T04:33:12;2.33;;;0.70;;
41253;SDS011;26987;59.928;30.306;2022-09-20T04:35:46;1.13;;;0.70;;
41253;SDS011;26987;59.928;30.306;2022-09-20T04:38:39;3.28;;;0.80;;
41253;SDS011;26987;59.928;30.306;2022-09-20T04:41:14;2.90;;;0.80;;
41253;SDS011;26987;59.928;30.306;2022-09-20T04:44:01;2.58;;;1.00;;
41253;SDS011;26987;59.928;30.306;2022-09-20T04:47:26;2.53;;;1.08;;
41253;SDS011;26987;59.928;30.306;2022-09-20T04:50:18;2.85;;;0.90;;
41253;SDS011;26987;59.928;30.306;2022-09-20T04:53:06;1.90;;;0.70;;
41253;SDS011;26987;59.928;30.306;2022-09-20T04:55:49;1.02;;;0.60;;
41253;SDS011;26987;59.928;30.306;2022-09-20T04:58:26;3.45;;;0.77;;
41253;SDS011;26987;59.928;30.306;2022-09-20T05:04:28;2.55;;;0.80;;
41253;SDS011;26987;59.928;30.306;2022-09-20T05:07:33;1.80;;;0.80;;
41253;SDS011;26987;59.928;30.306;2022-09-20T05:10:28;2.28;;;0.63;;
41253;SDS011;26987;59.928;30.306;2022-09-20T05:13:18;1.02;;;0.65;;
41253;SDS011;26987;59.928;30.306;2022-09-20T05:16:04;1.30;;;0.90;;
41253;SDS011;26987;59.928;30.306;2022-09-20T05:24:49;1.80;;;1.05;;
41253;SDS011;26987;59.928;30.306;2022-09-20T05:27:40;3.30;;;1.02;;
41253;SDS011;26987;59.928;30.306;2022-09-20T05:30:18;1.48;;;0.90;;
41253;SDS011;26987;59.928;30.306;2022-09-20T05:32:52;1.75;;;1.10;;
41253;SDS011;26987;59.928;30.306;2022-09-20T05:35:32;1.98;;;1.08;;
41253;SDS011;26987;59.928;30.306;2022-09-20T05:38:10;8.98;;;2.50;;
41253;SDS011;26987;59.928;30.306;2022-09-20T05:40:51;5.15;;;1.38;;
41253;SDS011;26987;59.928;30.306;2022-09-20T05:43:31;1.27;;;0.77;;
41253;SDS011;26987;59.928;30.306;2022-09-20T05:46:09;1.95;;;1.00;;
41253;SDS011;26987;59.928;30.306;2022-09-20T05:48:48;4.50;;;1.00;;
41253;SDS011;26987;59.928;30.306;2022-09-20T05:51:27;3.53;;;0.95;;
41253;SDS011;26987;59.928;30.306;2022-09-20T05:57:07;1.70;;;0.80;;
41253;SDS011;26987;59.928;30.306;2022-09-20T05:59:50;2.08;;;0.82;;
41253;SDS011;26987;59.928;30.306;2022-09-20T06:02:32;2.05;;;0.77;;
41253;SDS011;26987;59.928;30.306;2022-09-20T06:05:09;2.25;;;0.98;;
41253;SDS011;26987;59.928;30.306;2022-09-20T06:07:59;2.97;;;0.95;;
41253;SDS011;26987;59.928;30.306;2022-09-20T06:13:51;2.28;;;1.10;;
41253;SDS011;26987;59.928;30.306;2022-09-20T06:16:31;2.15;;;1.00;;
41253;SDS011;26987;59.928;30.306;2022-09-20T06:19:10;2.33;;;1.42;;
41253;SDS011;26987;59.928;30.306;2022-09-20T06:21:49;4.40;;;1.38;;
41253;SDS011;26987;59.928;30.306;2022-09-20T06:27:05;2.30;;;0.90;;
41253;SDS011;26987;59.928;30.306;2022-09-20T06:29:39;4.95;;;0.85;;
41253;SDS011;26987;59.928;30.306;2022-09-20T06:32:13;1.70;;;0.80;;
41253;SDS011;26987;59.928;30.306;2022-09-20T06:34:43;2.88;;;0.80;;
41253;SDS011;26987;59.928;30.306;2022-09-20T06:37:15;1.40;;;0.80;;
41253;SDS011;26987;59.928;30.306;2022-09-20T06:40:14;2.35;;;1.08;;
41253;SDS011;26987;59.928;30.306;2022-09-20T06:43:08;3.15;;;1.13;;
41253;SDS011;26987;59.928;30.306;2022-09-20T06:45:40;4.97;;;1.67;;
41253;SDS011;26987;59.928;30.306;2022-09-20T06:48:09;2.15;;;0.88;;
41253;SDS011;26987;59.928;30.306;2022-09-20T06:50:38;1.60;;;0.90;;
41253;SDS011;26987;59.928;30.306;2022-09-20T06:53:08;6.40;;;1.55;;
41253;SDS011;26987;59.928;30.306;2022-09-20T06:55:41;3.13;;;1.80;;
41253;SDS011;26987;59.928;30.306;2022-09-20T06:58:10;4.50;;;1.40;;
41253;SDS011;26987;59.928;30.306;2022-09-20T07:00:38;5.78;;;1.80;;
41253;SDS011;26987;59.928;30.306;2022-09-20T07:03:07;2.85;;;1.75;;
41253;SDS011;26987;59.928;30.306;2022-09-20T07:05:37;2.65;;;1.90;;
41253;SDS011;26987;59.928;30.306;2022-09-20T07:08:05;2.90;;;1.50;;
41253;SDS011;26987;59.928;30.306;2022-09-20T07:10:33;2.65;;;1.13;;
41253;SDS011;26987;59.928;30.306;2022-09-20T07:13:01;3.88;;;1.55;;
41253;SDS011;26987;59.928;30.306;2022-09-20T07:15:30;3.70;;;1.52;;
41253;SDS011;26987;59.928;30.306;2022-09-20T07:17:59;1.83;;;1.15;;
41253;SDS011;26987;59.928;30.306;2022-09-20T07:20:28;1.73;;;1.10;;
41253;SDS011;26987;59.928;30.306;2022-09-20T07:22:56;2.92;;;1.20;;
41253;SDS011;26987;59.928;30.306;2022-09-20T07:25:24;2.53;;;0.80;;
41253;SDS011;26987;59.928;30.306;2022-09-20T07:27:52;3.80;;;0.90;;
41253;SDS011;26987;59.928;30.306;2022-09-20T07:30:20;2.80;;;0.88;;
41253;SDS011;26987;59.928;30.306;2022-09-20T07:32:49;5.63;;;1.33;;
41253;SDS011;26987;59.928;30.306;2022-09-20T07:35:16;2.08;;;1.13;;
41253;SDS011;26987;59.928;30.306;2022-09-20T07:37:46;3.33;;;1.30;;
41253;SDS011;26987;59.928;30.306;2022-09-20T07:40:13;1.55;;;1.05;;
41253;SDS011;26987;59.928;30.306;2022-09-20T07:42:42;1.73;;;0.82;;
41253;SDS011;26987;59.928;30.306;2022-09-20T07:45:11;2.97;;;0.77;;
41253;SDS011;26987;59.928;30.306;2022-09-20T07:47:38;2.90;;;0.85;;
41253;SDS011;26987;59.928;30.306;2022-09-20T07:50:09;2.72;;;1.10;;
41253;SDS011;26987;59.928;30.306;2022-09-20T07:52:37;3.33;;;1.20;;
41253;SDS011;26987;59.928;30.306;2022-09-20T07:55:07;6.30;;;0.75;;
41253;SDS011;26987;59.928;30.306;2022-09-20T07:57:35;6.22;;;1.40;;
41253;SDS011;26987;59.928;30.306;2022-09-20T08:00:05;4.63;;;1.08;;
41253;SDS011;26987;59.928;30.306;2022-09-20T08:02:41;2.65;;;1.90;;
41253;SDS011;26987;59.928;30.306;2022-09-20T08:05:10;2.75;;;1.33;;
41253;SDS011;26987;59.928;30.306;2022-09-20T08:07:38;1.10;;;0.80;;
41253;SDS011;26987;59.928;30.306;2022-09-20T08:10:07;2.70;;;1.48;;
41253;SDS011;26987;59.928;30.306;2022-09-20T08:12:36;2.05;;;1.30;;
41253;SDS011;26987;59.928;30.306;2022-09-20T08:15:04;2.50;;;1.15;;
41253;SDS011;26987;59.928;30.306;2022-09-20T08:17:33;1.92;;;1.30;;
41253;SDS011;26987;59.928;30.306;2022-09-20T08:20:01;2.17;;;1.08;;
41253;SDS011;26987;59.928;30.306;2022-09-20T08:22:29;6.47;;;1.10;;
41253;SDS011;26987;59.928;30.306;2022-09-20T08:24:58;4.47;;;2.00;;
41253;SDS011;26987;59.928;30.306;2022-09-20T08:27:27;1.60;;;1.02;;
41253;SDS011;26987;59.928;30.306;2022-09-20T08:29:55;3.85;;;1.20;;
41253;SDS011;26987;59.928;30.306;2022-09-20T08:32:22;4.68;;;2.08;;
41253;SDS011;26987;59.928;30.306;2022-09-20T08:34:50;4.10;;;1.45;;
41253;SDS011;26987;59.928;30.306;2022-09-20T08:37:18;5.97;;;1.77;;
41253;SDS011;26987;59.928;30.306;2022-09-20T08:39:46;4.55;;;1.65;;
41253;SDS011;26987;59.928;30.306;2022-09-20T08:42:17;5.38;;;1.67;;
41253;SDS011;26987;59.928;30.306;2022-09-20T08:44:54;2.75;;;1.55;;
41253;SDS011;26987;59.928;30.306;2022-09-20T08:47:26;5.57;;;2.00;;
41253;SDS011;26987;59.928;30.306;2022-09-20T08:49:56;4.00;;;1.63;;
41253;SDS011;26987;59.928;30.306;2022-09-20T08:52:27;6.43;;;1.50;;
41253;SDS011;26987;59.928;30.306;2022-09-20T08:54:56;1.27;;;0.90;;
41253;SDS011;26987;59.928;30.306;2022-09-20T08:57:26;2.40;;;1.23;;
41253;SDS011;26987;59.928;30.306;2022-09-20T09:00:00;2.70;;;1.40;;
41253;SDS011;26987;59.928;30.306;2022-09-20T09:02:31;4.85;;;1.83;;
41253;SDS011;26987;59.928;30.306;2022-09-20T09:04:59;2.63;;;1.65;;
41253;SDS011;26987;59.928;30.306;2022-09-20T09:07:29;3.63;;;1.23;;
41253;SDS011;26987;59.928;30.306;2022-09-20T09:09:58;2.47;;;1.33;;
41253;SDS011;26987;59.928;30.306;2022-09-20T09:12:29;5.50;;;1.30;;
41253;SDS011;26987;59.928;30.306;2022-09-20T09:15:08;5.15;;;1.65;;
41253;SDS011;26987;59.928;30.306;2022-09-20T09:17:50;4.90;;;1.92;;
41253;SDS011;26987;59.928;30.306;2022-09-20T09:20:20;6.95;;;1.63;;
41253;SDS011;26987;59.928;30.306;2022-09-20T09:22:57;5.88;;;1.15;;
41253;SDS011;26987;59.928;30.306;2022-09-20T09:25:26;3.30;;;1.38;;
41253;SDS011;26987;59.928;30.306;2022-09-20T09:27:57;2.85;;;1.88;;
41253;SDS011;26987;59.928;30.306;2022-09-20T09:30:28;4.80;;;1.45;;
41253;SDS011;26987;59.928;30.306;2022-09-20T09:36:03;3.95;;;1.30;;
41253;SDS011;26987;59.928;30.306;2022-09-20T09:38:34;2.05;;;1.00;;
41253;SDS011;26987;59.928;30.306;2022-09-20T09:41:04;4.28;;;1.33;;
41253;SDS011;26987;59.928;30.306;2022-09-20T09:43:34;2.65;;;1.42;;
41253;SDS011;26987;59.928;30.306;2022-09-20T09:46:16;6.65;;;1.30;;
41253;SDS011;26987;59.928;30.306;2022-09-20T09:48:47;5.65;;;1.08;;
41253;SDS011;26987;59.928;30.306;2022-09-20T09:51:30;2.90;;;1.50;;
41253;SDS011;26987;59.928;30.306;2022-09-20T09:53:58;2.88;;;1.40;;
41253;SDS011;26987;59.928;30.306;2022-09-20T10:02:00;5.15;;;2.20;;
41253;SDS011;26987;59.928;30.306;2022-09-20T10:04:39;10.43;;;4.38;;
41253;SDS011;26987;59.928;30.306;2022-09-20T10:07:16;2.00;;;1.17;;
41253;SDS011;26987;59.928;30.306;2022-09-20T10:09:54;4.50;;;1.95;;
41253;SDS011;26987;59.928;30.306;2022-09-20T10:12:38;8.88;;;1.98;;
41253;SDS011;26987;59.928;30.306;2022-09-20T10:15:20;3.35;;;1.52;;
41253;SDS011;26987;59.928;30.306;2022-09-20T10:17:59;2.67;;;1.60;;
41253;SDS011;26987;59.928;30.306;2022-09-20T10:23:36;6.38;;;1.65;;
41253;SDS011;26987;59.928;30.306;2022-09-20T10:26:18;5.35;;;1.45;;
41253;SDS011;26987;59.928;30.306;2022-09-20T10:29:07;2.60;;;1.17;;
41253;SDS011;26987;59.928;30.306;2022-09-20T10:31:50;4.47;;;1.92;;
41253;SDS011;26987;59.928;30.306;2022-09-20T10:34:40;7.85;;;1.77;;
41253;SDS011;26987;59.928;30.306;2022-09-20T10:37:25;3.70;;;1.20;;
41253;SDS011;26987;59.928;30.306;2022-09-20T10:40:04;6.35;;;1.20;;
41253;SDS011;26987;59.928;30.306;2022-09-20T10:42:37;1.92;;;1.15;;
41253;SDS011;26987;59.928;30.306;2022-09-20T10:45:31;1.73;;;1.20;;
41253;SDS011;26987;59.928;30.306;2022-09-20T10:48:08;3.05;;;1.48;;
41253;SDS011;26987;59.928;30.306;2022-09-20T10:50:47;5.18;;;1.85;;
41253;SDS011;26987;59.928;30.306;2022-09-20T10:53:24;5.72;;;1.30;;
41253;SDS011;26987;59.928;30.306;2022-09-20T10:56:03;1.42;;;1.05;;
41253;SDS011;26987;59.928;30.306;2022-09-20T10:58:51;3.20;;;1.30;;
41253;SDS011;26987;59.928;30.306;2022-09-20T11:01:32;3.03;;;1.40;;
41253;SDS011;26987;59.928;30.306;2022-09-20T11:04:14;8.07;;;1.00;;
41253;SDS011;26987;59.928;30.306;2022-09-20T11:07:03;2.50;;;1.20;;
41253;SDS011;26987;59.928;30.306;2022-09-20T11:09:38;6.75;;;1.80;;
41253;SDS011;26987;59.928;30.306;2022-09-20T11:12:11;4.72;;;1.30;;
41253;SDS011;26987;59.928;30.306;2022-09-20T11:14:44;1.87;;;1.10;;
41253;SDS011;26987;59.928;30.306;2022-09-20T11:17:18;4.65;;;1.00;;
41253;SDS011;26987;59.928;30.306;2022-09-20T11:19:53;2.08;;;1.10;;
41253;SDS011;26987;59.928;30.306;2022-09-20T11:22:28;3.10;;;1.73;;
41253;SDS011;26987;59.928;30.306;2022-09-20T11:25:05;1.70;;;1.10;;
41253;SDS011;26987;59.928;30.306;2022-09-20T11:27:40;4.72;;;1.10;;
41253;SDS011;26987;59.928;30.306;2022-09-20T11:30:14;1.90;;;1.17;;
41253;SDS011;26987;59.928;30.306;2022-09-20T11:32:45;1.60;;;1.10;;
41253;SDS011;26987;59.928;30.306;2022-09-20T11:35:20;4.70;;;0.97;;
41253;SDS011;26987;59.928;30.306;2022-09-20T11:38:02;3.20;;;1.60;;
41253;SDS011;26987;59.928;30.306;2022-09-20T11:40:40;2.38;;;1.08;;
41253;SDS011;26987;59.928;30.306;2022-09-20T11:43:14;4.53;;;1.30;;
41253;SDS011;26987;59.928;30.306;2022-09-20T11:45:44;3.83;;;1.60;;
41253;SDS011;26987;59.928;30.306;2022-09-20T11:48:20;2.65;;;1.13;;
41253;SDS011;26987;59.928;30.306;2022-09-20T11:51:05;3.20;;;1.73;;
41253;SDS011;26987;59.928;30.306;2022-09-20T11:53:51;4.00;;;1.27;;
41253;SDS011;26987;59.928;30.306;2022-09-20T11:56:30;4.18;;;1.15;;
41253;SDS011;26987;59.928;30.306;2022-09-20T11:59:00;3.08;;;1.10;;
41253;SDS011;26987;59.928;30.306;2022-09-20T12:01:30;5.55;;;1.70;;
41253;SDS011;26987;59.928;30.306;2022-09-20T12:04:03;3.17;;;1.40;;
41253;SDS011;26987;59.928;30.306;2022-09-20T12:06:38;2.53;;;0.90;;
41253;SDS011;26987;59.928;30.306;2022-09-20T12:09:20;1.20;;;0.85;;
41253;SDS011;26987;59.928;30.306;2022-09-20T12:11:50;2.78;;;1.08;;
41253;SDS011;26987;59.928;30.306;2022-09-20T12:14:20;0.80;;;0.60;;
41253;SDS011;26987;59.928;30.306;2022-09-20T12:16:51;2.08;;;0.90;;
41253;SDS011;26987;59.928;30.306;2022-09-20T12:22:14;2.05;;;0.82;;
41253;SDS011;26987;59.928;30.306;2022-09-20T12:27:57;1.95;;;1.00;;
41253;SDS011;26987;59.928;30.306;2022-09-20T12:30:25;2.03;;;1.00;;
41253;SDS011;26987;59.928;30.306;2022-09-20T12:32:58;15.20;;;1.15;;
41253;SDS011;26987;59.928;30.306;2022-09-20T12:38:45;5.10;;;1.00;;
41253;SDS011;26987;59.928;30.306;2022-09-20T12:41:27;13.98;;;1.42;;
41253;SDS011;26987;59.928;30.306;2022-09-20T12:44:22;6.43;;;1.13;;
41253;SDS011;26987;59.928;30.306;2022-09-20T12:46:56;1.30;;;0.75;;
41253;SDS011;26987;59.928;30.306;2022-09-20T12:49:42;2.17;;;0.88;;
41253;SDS011;26987;59.928;30.306;2022-09-20T12:52:38;3.03;;;0.88;;
41253;SDS011;26987;59.928;30.306;2022-09-20T12:55:28;3.25;;;1.30;;
41253;SDS011;26987;59.928;30.306;2022-09-20T13:10:13;1.02;;;0.75;;
41253;SDS011;26987;59.928;30.306;2022-09-20T13:12:48;2.38;;;1.00;;
41253;SDS011;26987;59.928;30.306;2022-09-20T13:15:20;1.33;;;0.73;;
41253;SDS011;26987;59.928;30.306;2022-09-20T13:17:50;0.90;;;0.60;;
41253;SDS011;26987;59.928;30.306;2022-09-20T13:20:22;2.22;;;0.85;;
41253;SDS011;26987;59.928;30.306;2022-09-20T13:22:54;3.65;;;1.25;;
41253;SDS011;26987;59.928;30.306;2022-09-20T13:25:24;3.50;;;0.90;;
41253;SDS011;26987;59.928;30.306;2022-09-20T13:27:56;5.80;;;1.02;;
41253;SDS011;26987;59.928;30.306;2022-09-20T13:30:32;9.30;;;2.00;;
41253;SDS011;26987;59.928;30.306;2022-09-20T13:33:15;5.75;;;1.80;;
41253;SDS011;26987;59.928;30.306;2022-09-20T13:35:47;2.42;;;1.42;;
41253;SDS011;26987;59.928;30.306;2022-09-20T13:38:19;3.80;;;1.42;;
41253;SDS011;26987;59.928;30.306;2022-09-20T13:40:57;1.75;;;0.93;;
41253;SDS011;26987;59.928;30.306;2022-09-20T13:43:34;6.38;;;1.10;;
41253;SDS011;26987;59.928;30.306;2022-09-20T13:46:08;5.00;;;1.38;;
41253;SDS011;26987;59.928;30.306;2022-09-20T13:48:38;7.85;;;1.55;;
41253;SDS011;26987;59.928;30.306;2022-09-20T13:51:14;4.88;;;0.93;;
41253;SDS011;26987;59.928;30.306;2022-09-20T13:53:45;2.63;;;1.60;;
41253;SDS011;26987;59.928;30.306;2022-09-20T13:56:15;3.45;;;0.90;;
41253;SDS011;26987;59.928;30.306;2022-09-20T13:58:47;1.55;;;0.77;;
41253;SDS011;26987;59.928;30.306;2022-09-20T14:01:20;6.88;;;1.08;;
41253;SDS011;26987;59.928;30.306;2022-09-20T14:03:55;2.55;;;1.00;;
41253;SDS011;26987;59.928;30.306;2022-09-20T14:06:29;2.60;;;1.13;;
41253;SDS011;26987;59.928;30.306;2022-09-20T14:08:58;1.58;;;1.27;;
41253;SDS011;26987;59.928;30.306;2022-09-20T14:11:30;3.25;;;2.15;;
41253;SDS011;26987;59.928;30.306;2022-09-20T14:14:02;8.75;;;1.98;;
41253;SDS011;26987;59.928;30.306;2022-09-20T14:16:33;7.20;;;1.30;;
41253;SDS011;26987;59.928;30.306;2022-09-20T14:19:07;3.53;;;1.58;;
41253;SDS011;26987;59.928;30.306;2022-09-20T14:21:35;5.35;;;1.40;;
41253;SDS011;26987;59.928;30.306;2022-09-20T14:24:04;7.47;;;1.63;;
41253;SDS011;26987;59.928;30.306;2022-09-20T14:26:34;2.83;;;1.30;;
41253;SDS011;26987;59.928;30.306;2022-09-20T14:31:56;1.75;;;1.02;;
41253;SDS011;26987;59.928;30.306;2022-09-20T14:34:28;2.95;;;1.20;;
41253;SDS011;26987;59.928;30.306;2022-09-20T14:37:01;4.35;;;1.65;;
41253;SDS011;26987;59.928;30.306;2022-09-20T14:39:32;7.40;;;1.45;;
41253;SDS011;26987;59.928;30.306;2022-09-20T14:42:15;6.22;;;1.55;;
41253;SDS011;26987;59.928;30.306;2022-09-20T14:44:48;5.25;;;1.45;;
41253;SDS011;26987;59.928;30.306;2022-09-20T14:47:24;2.67;;;1.30;;
41253;SDS011;26987;59.928;30.306;2022-09-20T14:49:54;10.05;;;2.30;;
41253;SDS011;26987;59.928;30.306;2022-09-20T14:52:31;2.78;;;1.35;;
41253;SDS011;26987;59.928;30.306;2022-09-20T14:55:14;4.93;;;1.27;;
41253;SDS011;26987;59.928;30.306;2022-09-20T14:57:46;3.15;;;1.23;;
41253;SDS011;26987;59.928;30.306;2022-09-20T15:00:14;2.33;;;1.38;;
41253;SDS011;26987;59.928;30.306;2022-09-20T15:02:45;4.28;;;1.30;;
41253;SDS011;26987;59.928;30.306;2022-09-20T15:05:19;12.15;;;2.28;;
41253;SDS011;26987;59.928;30.306;2022-09-20T15:07:51;2.45;;;1.42;;
41253;SDS011;26987;59.928;30.306;2022-09-20T15:10:19;9.65;;;3.97;;
41253;SDS011;26987;59.928;30.306;2022-09-20T15:12:47;7.57;;;1.50;;
41253;SDS011;26987;59.928;30.306;2022-09-20T15:15:16;6.32;;;1.50;;
41253;SDS011;26987;59.928;30.306;2022-09-20T15:17:45;2.13;;;1.23;;
41253;SDS011;26987;59.928;30.306;2022-09-20T15:20:14;6.28;;;1.83;;
41253;SDS011;26987;59.928;30.306;2022-09-20T15:22:47;2.05;;;1.08;;
41253;SDS011;26987;59.928;30.306;2022-09-20T15:25:16;6.95;;;1.92;;
41253;SDS011;26987;59.928;30.306;2022-09-20T15:27:45;9.90;;;1.48;;
41253;SDS011;26987;59.928;30.306;2022-09-20T15:30:17;2.40;;;1.35;;
41253;SDS011;26987;59.928;30.306;2022-09-20T15:32:46;3.22;;;1.50;;
41253;SDS011;26987;59.928;30.306;2022-09-20T15:35:14;6.45;;;1.40;;
41253;SDS011;26987;59.928;30.306;2022-09-20T15:37:42;2.65;;;1.20;;
41253;SDS011;26987;59.928;30.306;2022-09-20T15:40:12;4.10;;;1.58;;
41253;SDS011;26987;59.928;30.306;2022-09-20T15:42:40;7.47;;;1.90;;
41253;SDS011;26987;59.928;30.306;2022-09-20T15:45:08;4.93;;;1.67;;
41253;SDS011;26987;59.928;30.306;2022-09-20T15:47:38;3.15;;;1.77;;
41253;SDS011;26987;59.928;30.306;2022-09-20T15:50:07;6.97;;;1.73;;
41253;SDS011;26987;59.928;30.306;2022-09-20T15:52:36;4.72;;;1.30;;
41253;SDS011;26987;59.928;30.306;2022-09-20T15:55:05;5.03;;;1.70;;
41253;SDS011;26987;59.928;30.306;2022-09-20T15:57:36;7.10;;;2.15;;
41253;SDS011;26987;59.928;30.306;2022-09-20T16:00:04;5.10;;;1.45;;
41253;SDS011;26987;59.928;30.306;2022-09-20T16:02:36;2.28;;;1.58;;
41253;SDS011;26987;59.928;30.306;2022-09-20T16:05:04;3.78;;;1.73;;
41253;SDS011;26987;59.928;30.306;2022-09-20T16:07:35;3.42;;;1.77;;
41253;SDS011;26987;59.928;30.306;2022-09-20T16:10:03;3.75;;;1.50;;
41253;SDS011;26987;59.928;30.306;2022-09-20T16:12:31;2.67;;;1.48;;
41253;SDS011;26987;59.928;30.306;2022-09-20T16:15:01;3.13;;;1.55;;
41253;SDS011;26987;59.928;30.306;2022-09-20T16:17:29;3.42;;;2.00;;
41253;SDS011;26987;59.928;30.306;2022-09-20T16:20:25;4.05;;;2.03;;
41253;SDS011;26987;59.928;30.306;2022-09-20T16:22:53;7.13;;;1.63;;
41253;SDS011;26987;59.928;30.306;2022-09-20T16:25:21;3.47;;;1.90;;
41253;SDS011;26987;59.928;30.306;2022-09-20T16:27:48;3.08;;;1.70;;
41253;SDS011;26987;59.928;30.306;2022-09-20T16:30:18;4.85;;;1.98;;
41253;SDS011;26987;59.928;30.306;2022-09-20T16:32:46;4.95;;;1.50;;
41253;SDS011;26987;59.928;30.306;2022-09-20T16:35:13;3.47;;;2.10;;
41253;SDS011;26987;59.928;30.306;2022-09-20T16:37:41;2.97;;;1.90;;
41253;SDS011;26987;59.928;30.306;2022-09-20T16:40:09;4.93;;;2.35;;